createdAt,value
2022-11-08T00:01:35.172Z,15.70
2022-11-08T00:04:08.486Z,15.40
2022-11-08T00:06:54.703Z,15.60
2022-11-08T00:09:39.824Z,15.40
2022-11-08T00:12:25.905Z,15.60
2022-11-08T00:14:53.473Z,15.40
2022-11-08T00:17:22.586Z,15.30
2022-11-08T00:19:49.677Z,15.50
2022-11-08T00:22:16.904Z,15.70
2022-11-08T00:24:44.022Z,15.40
2022-11-08T00:27:16.297Z,15.20
2022-11-08T00:29:43.142Z,15.50
2022-11-08T00:32:19.926Z,15.40
2022-11-08T00:34:48.523Z,15.50
2022-11-08T00:37:17.789Z,15.70
2022-11-08T00:39:44.574Z,15.60
2022-11-08T00:42:11.626Z,15.50
2022-11-08T00:44:38.525Z,15.70
2022-11-08T00:47:06.110Z,15.60
2022-11-08T00:49:32.964Z,15.50
2022-11-08T00:51:59.734Z,15.20
2022-11-08T00:54:26.474Z,15.10
2022-11-08T00:56:53.210Z,15.40
2022-11-08T00:59:20.468Z,15.50
2022-11-08T01:01:48.141Z,15.10
2022-11-08T01:04:18.877Z,15.20
2022-11-08T01:06:45.969Z,15.10
2022-11-08T01:09:13.015Z,15.30
2022-11-08T01:11:40.117Z,15.20
2022-11-08T01:14:07.551Z,15.30
2022-11-08T01:16:34.866Z,15.40
2022-11-08T01:19:02.432Z,15.20
2022-11-08T01:21:29.562Z,15.30
2022-11-08T01:23:56.515Z,15.40
2022-11-08T01:26:29.342Z,15.40
2022-11-08T01:28:57.545Z,15.30
2022-11-08T01:31:31.217Z,15.50
2022-11-08T01:33:59.172Z,15.40
2022-11-08T01:36:28.242Z,15.30
2022-11-08T01:38:56.664Z,15.40
2022-11-08T01:41:26.030Z,15.30
2022-11-08T01:43:56.160Z,15.00
2022-11-08T01:46:33.111Z,15.30
2022-11-08T01:49:11.671Z,14.90
2022-11-08T01:51:44.872Z,15.10
2022-11-08T01:54:19.266Z,15.20
2022-11-08T01:56:46.339Z,15.20
2022-11-08T01:59:15.757Z,15.50
2022-11-08T02:01:44.016Z,15.50
2022-11-08T02:04:12.642Z,15.40
2022-11-08T02:06:40.501Z,15.10
2022-11-08T02:09:11.086Z,15.30
2022-11-08T02:11:39.566Z,15.10
2022-11-08T02:14:07.303Z,15.20
2022-11-08T02:16:34.039Z,15.40
2022-11-08T02:19:00.877Z,15.40
2022-11-08T02:21:37.285Z,15.30
2022-11-08T02:24:09.869Z,15.40
2022-11-08T02:26:37.585Z,15.40
2022-11-08T02:29:28.084Z,15.20
2022-11-08T02:31:55.522Z,15.10
2022-11-08T02:34:34.655Z,14.90
2022-11-08T02:37:03.466Z,14.70
2022-11-08T02:39:30.589Z,14.30
2022-11-08T02:41:57.330Z,14.10
2022-11-08T02:44:24.064Z,14.30
2022-11-08T02:46:50.820Z,14.40
2022-11-08T02:49:17.558Z,14.20
2022-11-08T02:51:44.293Z,14.10
2022-11-08T02:54:11.038Z,13.90
2022-11-08T02:56:38.003Z,14.10
2022-11-08T02:59:06.069Z,14.10
2022-11-08T03:01:32.994Z,14.20
2022-11-08T03:04:00.077Z,14.10
2022-11-08T03:06:26.850Z,14.10
2022-11-08T03:08:53.646Z,13.50
2022-11-08T03:11:20.505Z,13.60
2022-11-08T03:13:47.264Z,13.60
2022-11-08T03:16:14.018Z,13.70
2022-11-08T03:18:40.746Z,13.70
2022-11-08T03:21:07.482Z,13.70
2022-11-08T03:23:34.257Z,14.10
2022-11-08T03:26:02.858Z,14.10
2022-11-08T03:28:30.081Z,14.00
2022-11-08T03:30:57.222Z,14.20
2022-11-08T03:33:24.447Z,14.40
2022-11-08T03:35:51.582Z,13.80
2022-11-08T03:38:18.821Z,13.40
2022-11-08T03:40:46.478Z,13.70
2022-11-08T03:43:13.652Z,13.50
2022-11-08T03:45:40.390Z,13.30
2022-11-08T03:48:07.555Z,13.80
2022-11-08T03:50:34.337Z,13.80
2022-11-08T03:53:01.068Z,14.10
2022-11-08T03:55:28.648Z,13.80
2022-11-08T03:57:56.384Z,13.90
2022-11-08T04:00:29.051Z,13.70
2022-11-08T04:03:03.001Z,14.00
2022-11-08T04:05:32.170Z,14.00
2022-11-08T04:08:01.044Z,13.70
2022-11-08T04:10:27.882Z,14.10
2022-11-08T04:13:13.000Z,14.10
2022-11-08T04:15:40.112Z,14.10
2022-11-08T04:18:25.161Z,14.20
2022-11-08T04:21:12.735Z,14.10
2022-11-08T04:23:40.201Z,14.10
2022-11-08T04:26:14.260Z,13.70
2022-11-08T04:28:43.976Z,13.70
2022-11-08T04:31:19.795Z,13.70
2022-11-08T04:33:48.048Z,13.20
2022-11-08T04:36:19.024Z,13.40
2022-11-08T04:38:55.982Z,13.60
2022-11-08T04:41:32.165Z,13.60
2022-11-08T04:43:59.551Z,13.60
2022-11-08T04:46:29.153Z,12.70
2022-11-08T04:48:58.661Z,11.70
2022-11-08T04:51:46.933Z,12.40
2022-11-08T04:54:34.181Z,12.50
2022-11-08T04:57:30.847Z,13.00
2022-11-08T04:59:57.566Z,13.20
2022-11-08T05:02:24.480Z,13.40
2022-11-08T05:04:51.282Z,12.10
2022-11-08T05:07:18.167Z,11.20
2022-11-08T05:09:44.908Z,11.20
2022-11-08T05:12:11.655Z,11.70
2022-11-08T05:14:38.862Z,11.90
2022-11-08T05:17:05.631Z,12.30
2022-11-08T05:19:50.917Z,12.20
2022-11-08T05:22:36.231Z,12.80
2022-11-08T05:25:02.987Z,13.10
2022-11-08T05:27:29.743Z,13.20
2022-11-08T05:29:56.499Z,13.40
2022-11-08T05:32:23.294Z,13.40
2022-11-08T05:34:50.004Z,13.60
2022-11-08T05:37:16.795Z,13.50
2022-11-08T05:39:43.531Z,13.40
2022-11-08T05:42:10.811Z,13.10
2022-11-08T05:44:37.538Z,13.20
2022-11-08T05:47:04.356Z,13.40
2022-11-08T05:49:31.083Z,13.80
2022-11-08T05:51:58.080Z,13.70
2022-11-08T05:54:24.803Z,13.90
2022-11-08T05:56:51.547Z,14.00
2022-11-08T05:59:18.266Z,14.00
2022-11-08T06:01:45.055Z,14.00
2022-11-08T06:04:11.864Z,13.90
2022-11-08T06:06:38.614Z,14.10
2022-11-08T06:09:05.407Z,13.80
2022-11-08T06:11:32.150Z,13.70
2022-11-08T06:13:58.905Z,13.70
2022-11-08T06:16:26.092Z,13.90
2022-11-08T06:18:53.102Z,13.40
2022-11-08T06:21:21.344Z,12.70
2022-11-08T06:23:48.295Z,13.00
2022-11-08T06:26:15.202Z,13.00
2022-11-08T06:28:41.958Z,13.60
2022-11-08T06:31:08.863Z,12.60
2022-11-08T06:33:35.801Z,11.70
2022-11-08T06:36:02.541Z,11.40
2022-11-08T06:38:29.895Z,12.00
2022-11-08T06:41:00.295Z,12.40
2022-11-08T06:43:27.222Z,12.70
2022-11-08T06:45:54.533Z,12.50
2022-11-08T06:48:21.266Z,11.70
2022-11-08T06:50:48.424Z,11.60
2022-11-08T06:53:15.598Z,11.40
2022-11-08T06:55:42.609Z,11.40
2022-11-08T06:58:11.111Z,11.80
2022-11-08T07:00:38.008Z,11.60
2022-11-08T07:03:04.869Z,11.90
2022-11-08T07:05:34.606Z,12.10
2022-11-08T07:08:04.575Z,12.60
2022-11-08T07:10:32.923Z,12.40
2022-11-08T07:13:10.253Z,12.60
2022-11-08T07:15:37.736Z,12.60
2022-11-08T07:18:13.542Z,12.70
2022-11-08T07:20:41.331Z,12.30
2022-11-08T07:23:10.288Z,12.50
2022-11-08T07:25:37.463Z,12.50
2022-11-08T07:28:07.819Z,11.70
2022-11-08T07:30:35.541Z,12.70
2022-11-08T07:33:02.400Z,11.70
2022-11-08T07:35:29.301Z,11.50
2022-11-08T07:37:56.698Z,11.90
2022-11-08T07:40:23.760Z,11.70
2022-11-08T07:43:10.721Z,11.90
2022-11-08T07:45:37.479Z,11.60
2022-11-08T07:48:12.082Z,11.40
2022-11-08T07:50:41.566Z,10.90
2022-11-08T07:53:08.964Z,12.00
2022-11-08T07:55:37.508Z,12.10
2022-11-08T07:58:05.456Z,12.20
2022-11-08T08:00:36.547Z,12.50
2022-11-08T08:03:05.984Z,12.60
2022-11-08T08:05:42.255Z,12.70
2022-11-08T08:08:10.663Z,12.50
2022-11-08T08:10:38.201Z,12.80
2022-11-08T08:13:06.258Z,13.70
2022-11-08T08:15:33.677Z,13.90
2022-11-08T08:18:04.858Z,13.80
2022-11-08T08:20:32.637Z,14.10
2022-11-08T08:23:00.709Z,14.50
2022-11-08T08:25:30.825Z,14.50
2022-11-08T08:28:00.698Z,14.50
2022-11-08T08:30:30.131Z,14.10
2022-11-08T08:33:28.023Z,14.40
2022-11-08T08:35:56.299Z,14.70
2022-11-08T08:38:23.086Z,15.40
2022-11-08T08:40:50.775Z,15.00
2022-11-08T08:43:18.009Z,15.10
2022-11-08T08:45:44.979Z,16.00
2022-11-08T08:48:11.720Z,16.60
2022-11-08T08:50:38.546Z,16.70
2022-11-08T08:53:06.369Z,17.00
2022-11-08T08:55:36.639Z,17.10
2022-11-08T08:58:03.598Z,17.10
2022-11-08T09:03:17.627Z,16.80
2022-11-08T09:05:46.556Z,17.00
2022-11-08T09:08:15.008Z,16.80
2022-11-08T09:10:42.043Z,16.80
2022-11-08T09:13:08.975Z,16.70
2022-11-08T09:15:35.843Z,16.30
2022-11-08T09:18:03.019Z,15.90
2022-11-08T09:20:29.804Z,15.80
2022-11-08T09:23:01.435Z,16.20
2022-11-08T09:25:28.178Z,16.60
2022-11-08T09:27:55.678Z,16.90
2022-11-08T09:30:38.205Z,16.20
2022-11-08T09:33:12.114Z,16.00
2022-11-08T09:35:56.715Z,16.40
2022-11-08T09:39:12.270Z,17.00
2022-11-08T09:42:39.133Z,17.30
2022-11-08T09:46:07.272Z,16.80
2022-11-08T09:49:13.830Z,17.00
2022-11-08T09:52:07.233Z,16.90
2022-11-08T09:55:38.393Z,17.30
2022-11-08T09:59:42.620Z,17.00
2022-11-08T10:02:50.831Z,17.30
2022-11-08T10:05:52.281Z,17.20
2022-11-08T10:08:33.212Z,16.90
2022-11-08T10:11:19.555Z,16.80
2022-11-08T10:13:55.297Z,16.60
2022-11-08T10:16:51.944Z,16.80
2022-11-08T10:19:53.077Z,17.40
2022-11-08T10:22:49.606Z,16.60
2022-11-08T10:25:38.855Z,17.30
2022-11-08T10:28:07.758Z,16.70
2022-11-08T10:30:39.486Z,17.10
2022-11-08T10:33:23.789Z,16.80
2022-11-08T10:36:07.289Z,16.90
2022-11-08T10:38:42.692Z,17.00
2022-11-08T10:41:31.780Z,16.80
2022-11-08T10:44:15.238Z,16.90
2022-11-08T10:47:02.114Z,16.90
2022-11-08T10:49:41.800Z,17.30
2022-11-08T10:52:11.674Z,17.30
2022-11-08T10:54:53.193Z,17.30
2022-11-08T10:57:31.487Z,17.00
2022-11-08T11:00:21.136Z,17.10
2022-11-08T11:03:09.962Z,16.90
2022-11-08T11:05:58.877Z,16.90
2022-11-08T11:08:26.378Z,17.30
2022-11-08T11:10:53.386Z,17.10
2022-11-08T11:16:04.707Z,17.00
2022-11-08T11:18:35.924Z,17.90
2022-11-08T11:21:36.162Z,17.30
2022-11-08T11:24:19.488Z,17.20
2022-11-08T11:26:56.578Z,17.20
2022-11-08T11:29:32.582Z,17.30
2022-11-08T11:32:35.146Z,18.00
2022-11-08T11:35:05.979Z,17.40
2022-11-08T11:37:54.558Z,17.40
2022-11-08T11:40:37.251Z,17.60
2022-11-08T11:43:42.934Z,17.40
2022-11-08T11:46:19.865Z,17.80
2022-11-08T11:48:53.710Z,17.80
2022-11-08T11:51:21.261Z,18.00
2022-11-08T11:53:49.100Z,17.60
2022-11-08T11:56:41.058Z,18.00
2022-11-08T11:59:40.910Z,18.50
2022-11-08T12:02:54.208Z,18.40
2022-11-08T12:05:59.681Z,18.50
2022-11-08T12:08:55.983Z,18.50
2022-11-08T12:11:55.998Z,18.20
2022-11-08T12:15:23.067Z,18.30
2022-11-08T12:18:10.342Z,18.10
2022-11-08T12:20:45.992Z,18.30
2022-11-08T12:23:53.196Z,18.70
2022-11-08T12:26:26.613Z,18.40
2022-11-08T12:29:19.985Z,18.80
2022-11-08T12:32:26.618Z,18.20
2022-11-08T12:35:32.431Z,18.50
2022-11-08T12:38:42.497Z,17.90
2022-11-08T12:41:47.945Z,18.20
2022-11-08T12:44:48.675Z,18.20
2022-11-08T12:47:30.962Z,18.40
2022-11-08T12:50:37.875Z,18.80
2022-11-08T12:53:40.053Z,19.30
2022-11-08T12:56:15.449Z,18.50
2022-11-08T12:58:46.525Z,18.50
2022-11-08T13:01:18.985Z,18.60
2022-11-08T13:04:05.680Z,18.60
2022-11-08T13:06:46.741Z,18.70
2022-11-08T13:09:36.069Z,18.80
2022-11-08T13:12:52.052Z,19.50
2022-11-08T13:15:26.069Z,20.10
2022-11-08T13:18:23.465Z,19.60
2022-11-08T13:20:50.419Z,19.80
2022-11-08T13:23:31.565Z,19.50
2022-11-08T13:26:18.918Z,19.60
2022-11-08T13:28:46.966Z,20.40
2022-11-08T13:31:22.322Z,20.40
2022-11-08T13:34:10.513Z,20.20
2022-11-08T13:37:05.249Z,20.60
2022-11-08T13:39:48.531Z,21.00
2022-11-08T13:42:18.193Z,21.50
2022-11-08T13:45:18.393Z,20.40
2022-11-08T13:47:47.875Z,20.50
2022-11-08T13:50:31.228Z,20.50
2022-11-08T13:53:03.951Z,20.30
2022-11-08T13:55:42.512Z,20.30
2022-11-08T13:58:35.227Z,20.50
2022-11-08T14:01:27.261Z,19.80
2022-11-08T14:03:57.170Z,20.40
2022-11-08T14:06:44.405Z,20.90
2022-11-08T14:09:43.891Z,21.20
2022-11-08T14:12:31.743Z,21.30
2022-11-08T14:15:33.448Z,20.70
2022-11-08T14:18:17.610Z,20.90
2022-11-08T14:20:47.166Z,20.80
2022-11-08T14:23:20.263Z,20.60
2022-11-08T14:25:55.428Z,20.80
2022-11-08T14:28:43.801Z,21.40
2022-11-08T14:31:33.053Z,21.40
2022-11-08T14:34:01.154Z,21.30
2022-11-08T14:36:30.659Z,21.30
2022-11-08T14:39:17.392Z,21.40
2022-11-08T14:41:53.156Z,20.90
2022-11-08T14:44:20.097Z,20.80
2022-11-08T14:46:48.121Z,20.40
2022-11-08T14:49:15.540Z,20.60
2022-11-08T14:51:43.479Z,20.80
2022-11-08T14:54:27.151Z,20.70
2022-11-08T14:56:55.829Z,20.50
2022-11-08T14:59:24.711Z,20.30
2022-11-08T15:01:51.596Z,20.60
2022-11-08T15:04:21.826Z,20.40
2022-11-08T15:06:59.872Z,20.40
2022-11-08T15:09:33.671Z,20.40
2022-11-08T15:12:04.537Z,20.30
2022-11-08T15:14:35.927Z,20.50
2022-11-08T15:17:03.863Z,20.00
2022-11-08T15:19:44.390Z,19.70
2022-11-08T15:22:36.367Z,20.50
2022-11-08T15:25:35.312Z,20.60
2022-11-08T15:28:25.879Z,20.30
2022-11-08T15:31:01.093Z,20.20
2022-11-08T15:33:40.753Z,19.70
2022-11-08T15:36:16.120Z,19.80
2022-11-08T15:38:47.881Z,20.00
2022-11-08T15:41:38.415Z,20.00
2022-11-08T15:44:25.697Z,20.10
2022-11-08T15:46:54.389Z,19.80
2022-11-08T15:49:25.454Z,19.80
2022-11-08T15:51:54.530Z,19.90
2022-11-08T15:54:23.869Z,19.50
2022-11-08T15:56:52.786Z,19.20
2022-11-08T15:59:30.724Z,19.80
2022-11-08T16:02:00.745Z,19.70
2022-11-08T16:04:29.347Z,19.90
2022-11-08T16:06:57.517Z,20.00
2022-11-08T16:09:24.408Z,19.90
2022-11-08T16:11:51.478Z,19.80
2022-11-08T16:14:22.158Z,19.80
2022-11-08T16:16:49.320Z,20.00
2022-11-08T16:19:23.453Z,20.00
2022-11-08T16:21:51.792Z,19.90
2022-11-08T16:24:19.163Z,19.80
2022-11-08T16:26:46.866Z,19.90
2022-11-08T16:29:22.717Z,19.80
2022-11-08T16:31:51.092Z,19.60
2022-11-08T16:34:18.789Z,19.30
2022-11-08T16:36:47.459Z,19.70
2022-11-08T16:39:21.488Z,19.30
2022-11-08T16:41:48.358Z,19.60
2022-11-08T16:44:15.564Z,19.80
2022-11-08T16:46:42.472Z,19.80
2022-11-08T16:49:20.874Z,19.60
2022-11-08T16:51:49.009Z,19.70
2022-11-08T16:54:23.980Z,19.30
2022-11-08T16:56:51.771Z,19.00
2022-11-08T16:59:18.626Z,19.10
2022-11-08T17:01:45.845Z,19.30
2022-11-08T17:04:12.600Z,19.30
2022-11-08T17:06:39.604Z,18.90
2022-11-08T17:09:07.165Z,18.60
2022-11-08T17:11:34.012Z,19.00
2022-11-08T17:14:02.057Z,18.50
2022-11-08T17:16:29.246Z,18.70
2022-11-08T17:18:57.570Z,18.80
2022-11-08T17:24:13.593Z,19.10
2022-11-08T17:26:42.564Z,19.30
2022-11-08T17:29:09.330Z,19.40
2022-11-08T17:31:36.246Z,19.20
2022-11-08T17:34:02.975Z,19.30
2022-11-08T17:36:29.733Z,19.10
2022-11-08T17:38:56.490Z,18.60
2022-11-08T17:41:23.263Z,19.00
2022-11-08T17:43:50.673Z,18.90
2022-11-08T17:46:17.474Z,18.80
2022-11-08T17:48:44.191Z,18.70
2022-11-08T17:51:13.028Z,18.50
2022-11-08T17:53:39.844Z,18.90
2022-11-08T17:56:07.151Z,18.80
2022-11-08T17:58:34.580Z,18.70
2022-11-08T18:01:04.540Z,18.40
2022-11-08T18:03:31.917Z,18.40
2022-11-08T18:06:00.453Z,18.40
2022-11-08T18:11:39.983Z,17.90
2022-11-08T18:14:06.758Z,18.10
2022-11-08T18:16:34.300Z,18.10
2022-11-08T18:19:01.072Z,18.40
2022-11-08T18:21:27.948Z,18.60
2022-11-08T18:23:54.791Z,18.30
2022-11-08T18:26:21.830Z,18.70
2022-11-08T18:28:48.629Z,18.70
2022-11-08T18:31:18.279Z,18.50
2022-11-08T18:33:45.933Z,18.50
2022-11-08T18:36:25.039Z,18.40
2022-11-08T18:38:52.612Z,18.30
2022-11-08T18:41:25.570Z,18.30
2022-11-08T18:43:52.537Z,18.80
2022-11-08T18:46:22.661Z,17.80
2022-11-08T18:48:50.468Z,18.10
2022-11-08T18:51:20.135Z,18.10
2022-11-08T18:53:47.238Z,18.30
2022-11-08T18:56:14.721Z,18.70
2022-11-08T18:58:42.790Z,18.30
2022-11-08T19:01:09.647Z,18.30
2022-11-08T19:03:36.795Z,18.10
2022-11-08T19:06:03.792Z,18.30
2022-11-08T19:08:31.219Z,18.20
2022-11-08T19:11:01.255Z,18.30
2022-11-08T19:13:31.549Z,18.50
2022-11-08T19:16:04.641Z,18.30
2022-11-08T19:18:33.225Z,18.30
2022-11-08T19:21:47.862Z,18.60
2022-11-08T19:24:31.451Z,18.60
2022-11-08T19:27:28.845Z,18.70
2022-11-08T19:30:28.365Z,19.00
2022-11-08T19:33:28.360Z,18.80
2022-11-08T19:36:29.018Z,18.70
2022-11-08T19:38:58.647Z,18.80
2022-11-08T19:41:47.701Z,18.70
2022-11-08T19:44:15.269Z,18.70
2022-11-08T19:46:43.089Z,19.10
2022-11-08T19:49:10.205Z,18.90
2022-11-08T19:51:41.810Z,18.80
2022-11-08T19:54:12.973Z,18.90
2022-11-08T19:59:26.414Z,19.20
2022-11-08T20:01:53.494Z,19.10
2022-11-08T20:04:20.447Z,19.20
2022-11-08T20:06:47.394Z,19.00
2022-11-08T20:09:14.479Z,18.70
2022-11-08T20:11:42.108Z,18.40
2022-11-08T20:14:11.644Z,18.80
2022-11-08T20:16:41.932Z,18.80
2022-11-08T20:19:16.645Z,18.80
2022-11-08T20:21:45.960Z,19.20
2022-11-08T20:24:14.328Z,19.00
2022-11-08T20:26:42.511Z,18.80
2022-11-08T20:29:09.701Z,19.20
2022-11-08T20:31:37.106Z,19.00
2022-11-08T20:34:10.267Z,18.90
2022-11-08T20:36:37.836Z,19.00
2022-11-08T20:39:26.532Z,19.30
2022-11-08T20:42:05.809Z,19.40
2022-11-08T20:45:24.269Z,18.90
2022-11-08T20:48:23.375Z,18.90
2022-11-08T20:51:22.812Z,19.00
2022-11-08T20:54:22.959Z,19.30
2022-11-08T20:57:23.500Z,19.40
2022-11-08T20:59:50.230Z,19.10
2022-11-08T21:02:17.042Z,18.80
2022-11-08T21:04:43.806Z,19.10
2022-11-08T21:10:19.717Z,19.40
2022-11-08T21:12:44.102Z,19.10
2022-11-08T21:15:11.153Z,18.50
2022-11-08T21:17:37.879Z,18.10
2022-11-08T21:20:05.129Z,19.10
2022-11-08T21:22:31.851Z,19.20
2022-11-08T21:24:58.627Z,18.50
2022-11-08T21:27:29.604Z,18.20
2022-11-08T21:29:56.733Z,17.80
2022-11-08T21:32:23.630Z,17.80
2022-11-08T21:34:50.345Z,18.20
2022-11-08T21:37:17.135Z,18.10
2022-11-08T21:39:43.985Z,18.60
2022-11-08T21:42:10.845Z,18.80
2022-11-08T21:44:37.638Z,19.00
2022-11-08T21:47:04.475Z,18.90
2022-11-08T21:49:31.221Z,19.40
2022-11-08T21:51:58.013Z,19.00
2022-11-08T21:54:24.781Z,18.70
2022-11-08T21:56:51.594Z,19.40
2022-11-08T21:59:18.360Z,19.60
2022-11-08T22:01:45.165Z,19.80
2022-11-08T22:04:11.897Z,19.30
2022-11-08T22:06:40.583Z,19.40
2022-11-08T22:09:10.395Z,19.80
2022-11-08T22:11:37.282Z,19.80
2022-11-08T22:14:04.239Z,19.90
2022-11-08T22:16:31.009Z,19.90
2022-11-08T22:19:04.688Z,19.20
2022-11-08T22:21:41.578Z,19.60
2022-11-08T22:24:19.886Z,19.20
2022-11-08T22:26:50.998Z,19.40
2022-11-08T22:29:26.552Z,19.00
2022-11-08T22:32:07.950Z,19.40
2022-11-08T22:34:46.818Z,19.10
2022-11-08T22:37:28.055Z,19.30
2022-11-08T22:40:24.095Z,18.90
2022-11-08T22:46:08.160Z,18.90
2022-11-08T22:48:35.052Z,19.20
2022-11-08T22:51:02.636Z,19.00
2022-11-08T22:53:29.835Z,18.70
2022-11-08T22:55:56.979Z,18.50
2022-11-08T22:58:23.806Z,18.70
2022-11-08T23:00:50.663Z,18.90
2022-11-08T23:03:17.646Z,18.90
2022-11-08T23:05:56.804Z,18.30
2022-11-08T23:08:26.355Z,18.20
2022-11-08T23:11:12.034Z,18.30
2022-11-08T23:13:57.816Z,18.20
2022-11-08T23:16:40.257Z,17.90
2022-11-08T23:19:31.622Z,17.80
2022-11-08T23:22:17.372Z,17.90
2022-11-08T23:24:44.889Z,17.90
2022-11-08T23:27:32.801Z,18.20
2022-11-08T23:30:17.846Z,17.90
2022-11-08T23:32:48.306Z,18.30
2022-11-08T23:35:16.654Z,18.50
2022-11-08T23:37:44.059Z,18.30
2022-11-08T23:40:32.648Z,18.50
2022-11-08T23:43:35.568Z,19.00
2022-11-08T23:46:12.722Z,18.20
2022-11-08T23:48:40.819Z,19.10
2022-11-08T23:51:08.105Z,18.10
2022-11-08T23:53:39.904Z,18.20
2022-11-08T23:56:07.258Z,18.30
2022-11-08T23:58:34.204Z,18.40
